Time;durP1;ratioP1;P1;durP2;ratioP2;P2;SDS_P1;SDS_P2;PMS_P1;PMS_P2;Temp;Humidity;BMP_temperature;BMP_pressure;BME280_temperature;BME280_humidity;BME280_pressure;Samples;Min_cycle;Max_cycle;Signal;HPM_P1;HPM_P2
2021/08/16 00:00:20;;;;;;;18.52;11.30;;;;;;;;;;1083196;54;20027;-59
2021/08/16 00:01:21;;;;;;;17.27;11.48;;;;;;;;;;1083205;54;20122;-59
2021/08/16 00:02:24;;;;;;;20.58;11.00;;;;;;;;;;1083321;54;20030;-58
2021/08/16 00:03:25;;;;;;;16.98;10.93;;;;;;;;;;1083198;54;20117;-59
2021/08/16 00:04:29;;;;;;;15.20;10.75;;;;;;;;;;1083212;54;20029;-58
2021/08/16 00:05:30;;;;;;;16.73;11.38;;;;;;;;;;1083183;54;20023;-59
2021/08/16 00:06:34;;;;;;;18.80;11.15;;;;;;;;;;1083175;54;20027;-59
2021/08/16 00:07:35;;;;;;;15.98;10.65;;;;;;;;;;1083240;54;20049;-59
2021/08/16 00:08:38;;;;;;;20.08;12.27;;;;;;;;;;1083575;39;20428;-59
2021/08/16 00:09:39;;;;;;;19.75;11.25;;;;;;;;;;1083232;54;20049;-58
2021/08/16 00:10:45;;;;;;;17.88;11.43;;;;;;;;;;1083182;51;20033;-59
2021/08/16 00:11:46;;;;;;;20.25;12.05;;;;;;;;;;1083155;54;20027;-59
2021/08/16 00:12:50;;;;;;;22.23;14.00;;;;;;;;;;1083197;54;20053;-59
2021/08/16 00:13:51;;;;;;;20.77;12.55;;;;;;;;;;1083201;54;20547;-59
2021/08/16 00:14:54;;;;;;;18.90;12.55;;;;;;;;;;1083185;54;20022;-59
2021/08/16 00:15:57;;;;;;;18.98;11.55;;;;;;;;;;1083181;54;20125;-59
2021/08/16 00:17:00;;;;;;;18.10;11.80;;;;;;;;;;1083199;54;20023;-59
2021/08/16 00:18:03;;;;;;;18.67;11.88;;;;;;;;;;1083110;54;20109;-59
2021/08/16 00:19:07;;;;;;;18.80;11.73;;;;;;;;;;1083608;39;20452;-59
2021/08/16 00:20:12;;;;;;;16.42;11.02;;;;;;;;;;1083188;54;20572;-59
2021/08/16 00:21:13;;;;;;;17.85;11.43;;;;;;;;;;1083175;54;20117;-59
2021/08/16 00:22:16;;;;;;;15.73;10.60;;;;;;;;;;1083175;49;20034;-58
2021/08/16 00:23:20;;;;;;;14.35;10.40;;;;;;;;;;1083138;54;20053;-58
2021/08/16 00:24:21;;;;;;;15.98;10.95;;;;;;;;;;1083177;54;20034;-58
2021/08/16 00:25:25;;;;;;;21.23;11.70;;;;;;;;;;1083170;54;20046;-59
2021/08/16 00:26:30;;;;;;;17.35;11.25;;;;;;;;;;1083162;54;20038;-59
2021/08/16 00:27:34;;;;;;;18.67;11.60;;;;;;;;;;1083177;54;20126;-58
2021/08/16 00:28:36;;;;;;;20.77;11.95;;;;;;;;;;1083117;54;20050;-59
2021/08/16 00:29:39;;;;;;;16.85;11.02;;;;;;;;;;1083219;54;20027;-58
2021/08/16 00:30:40;;;;;;;20.33;12.50;;;;;;;;;;1083182;54;20555;-59
2021/08/16 00:31:44;;;;;;;20.27;11.50;;;;;;;;;;1083142;47;20033;-59
2021/08/16 00:32:45;;;;;;;16.05;10.25;;;;;;;;;;1083104;54;20113;-58
2021/08/16 00:33:49;;;;;;;18.77;11.60;;;;;;;;;;1083202;54;20126;-59
2021/08/16 00:34:50;;;;;;;19.30;11.35;;;;;;;;;;1083164;54;20537;-59
2021/08/16 00:35:53;;;;;;;13.68;10.20;;;;;;;;;;1083198;54;20031;-59
2021/08/16 00:36:57;;;;;;;17.60;10.80;;;;;;;;;;1083175;54;20057;-58
2021/08/16 00:37:58;;;;;;;16.48;10.55;;;;;;;;;;1083090;54;20030;-58
2021/08/16 00:39:01;;;;;;;19.23;9.73;;;;;;;;;;1083222;54;20544;-58
2021/08/16 00:40:03;;;;;;;17.17;10.55;;;;;;;;;;1083898;31;20611;-59
2021/08/16 00:41:07;;;;;;;18.00;11.00;;;;;;;;;;1083181;54;20029;-59
2021/08/16 00:42:12;;;;;;;18.02;10.55;;;;;;;;;;1083409;31;20431;-59
2021/08/16 00:43:16;;;;;;;17.92;10.52;;;;;;;;;;1083149;54;20031;-58
2021/08/16 00:44:17;;;;;;;16.65;9.85;;;;;;;;;;1083192;54;20057;-59
2021/08/16 00:45:21;;;;;;;15.15;10.98;;;;;;;;;;1083125;54;20030;-59
2021/08/16 00:46:22;;;;;;;16.45;11.00;;;;;;;;;;1083114;54;20038;-59
2021/08/16 00:47:25;;;;;;;15.50;10.38;;;;;;;;;;1083153;54;20556;-59
2021/08/16 00:48:29;;;;;;;20.90;11.20;;;;;;;;;;1083840;31;20501;-59
2021/08/16 00:49:30;;;;;;;17.77;10.25;;;;;;;;;;1083137;54;20030;-59
2021/08/16 00:50:33;;;;;;;14.85;10.05;;;;;;;;;;1083123;54;20025;-59
2021/08/16 00:51:36;;;;;;;15.63;10.05;;;;;;;;;;1083136;54;20114;-58
2021/08/16 00:52:40;;;;;;;16.27;9.27;;;;;;;;;;1083055;54;20022;-59
2021/08/16 00:53:41;;;;;;;18.15;9.70;;;;;;;;;;1083172;54;20114;-58
2021/08/16 00:54:45;;;;;;;18.38;10.13;;;;;;;;;;1083065;54;20034;-59
2021/08/16 00:55:48;;;;;;;15.05;9.65;;;;;;;;;;1083539;39;20525;-59
2021/08/16 00:56:50;;;;;;;16.48;9.80;;;;;;;;;;1083157;54;20034;-58
2021/08/16 00:57:59;;;;;;;16.92;9.75;;;;;;;;;;1083098;54;20562;-58
2021/08/16 00:59:01;;;;;;;14.52;9.55;;;;;;;;;;1083122;54;20038;-59
2021/08/16 01:00:06;;;;;;;16.92;11.18;;;;;;;;;;1083094;54;20031;-59
2021/08/16 01:01:08;;;;;;;18.35;10.05;;;;;;;;;;1083217;54;20047;-59
2021/08/16 01:02:15;;;;;;;15.98;10.25;;;;;;;;;;1083149;54;20117;-59
2021/08/16 01:03:16;;;;;;;13.60;9.38;;;;;;;;;;1083096;54;20030;-59
2021/08/16 01:04:20;;;;;;;16.77;9.88;;;;;;;;;;1083103;54;20037;-58
2021/08/16 01:05:21;;;;;;;15.48;10.00;;;;;;;;;;1083132;54;20033;-58
2021/08/16 01:06:24;;;;;;;16.50;9.68;;;;;;;;;;1083573;39;20436;-58
2021/08/16 01:07:25;;;;;;;20.42;10.55;;;;;;;;;;1083531;39;20433;-58
2021/08/16 01:08:29;;;;;;;16.02;10.10;;;;;;;;;;1083052;54;20037;-59
2021/08/16 01:09:30;;;;;;;14.85;10.48;;;;;;;;;;1083549;39;20533;-59
2021/08/16 01:10:34;;;;;;;14.60;10.07;;;;;;;;;;1083551;39;20432;-59
2021/08/16 01:11:35;;;;;;;18.00;10.27;;;;;;;;;;1083155;54;20054;-58
2021/08/16 01:12:39;;;;;;;16.83;11.13;;;;;;;;;;1083069;54;20027;-59
2021/08/16 01:13:43;;;;;;;16.80;10.48;;;;;;;;;;1083059;54;20026;-60
2021/08/16 01:14:47;;;;;;;17.15;10.88;;;;;;;;;;1083065;50;20061;-59
2021/08/16 01:15:59;;;;;;;17.92;10.70;;;;;;;;;;1083062;54;20026;-59
2021/08/16 01:17:03;;;;;;;18.48;10.50;;;;;;;;;;1083089;54;20022;-58
2021/08/16 01:18:04;;;;;;;16.92;11.13;;;;;;;;;;1083070;54;20042;-59
2021/08/16 01:19:08;;;;;;;19.73;11.18;;;;;;;;;;1083095;54;20026;-59
2021/08/16 01:20:12;;;;;;;16.52;10.25;;;;;;;;;;1083536;39;20516;-58
2021/08/16 01:21:18;;;;;;;14.93;9.95;;;;;;;;;;1083166;54;20037;-59
2021/08/16 01:22:20;;;;;;;15.05;10.40;;;;;;;;;;1083888;31;20456;-59
2021/08/16 01:23:24;;;;;;;18.05;10.95;;;;;;;;;;1083113;54;20038;-59
2021/08/16 01:24:25;;;;;;;17.60;11.25;;;;;;;;;;1083089;54;20031;-59
2021/08/16 01:25:29;;;;;;;17.88;10.95;;;;;;;;;;1083484;39;20444;-59
2021/08/16 01:26:34;;;;;;;17.88;11.02;;;;;;;;;;1083506;39;20421;-58
2021/08/16 01:27:38;;;;;;;16.50;10.77;;;;;;;;;;1083100;54;20061;-59
2021/08/16 01:28:39;;;;;;;16.17;10.30;;;;;;;;;;1083097;54;20033;-59
2021/08/16 01:29:43;;;;;;;17.83;10.75;;;;;;;;;;1083075;54;20544;-59
2021/08/16 01:30:45;;;;;;;19.67;10.13;;;;;;;;;;1083070;54;20026;-58
2021/08/16 01:31:49;;;;;;;14.68;10.02;;;;;;;;;;1083069;54;20544;-59
2021/08/16 01:32:52;;;;;;;16.40;10.45;;;;;;;;;;1083036;54;20061;-59
2021/08/16 01:33:53;;;;;;;17.70;10.15;;;;;;;;;;1083514;39;20408;-59
2021/08/16 01:34:57;;;;;;;18.55;10.60;;;;;;;;;;1083031;54;20030;-59
2021/08/16 01:35:58;;;;;;;17.02;10.05;;;;;;;;;;1083113;54;20154;-59
2021/08/16 01:37:02;;;;;;;14.23;9.80;;;;;;;;;;1083054;54;20037;-59
2021/08/16 01:38:03;;;;;;;12.30;8.23;;;;;;;;;;1083023;54;20033;-59
2021/08/16 01:39:07;;;;;;;13.95;8.57;;;;;;;;;;1083042;54;20078;-59
2021/08/16 01:40:13;;;;;;;17.90;9.82;;;;;;;;;;1083054;54;20128;-59
2021/08/16 01:41:16;;;;;;;17.90;8.93;;;;;;;;;;1083089;54;20599;-59
2021/08/16 01:42:20;;;;;;;12.40;5.75;;;;;;;;;;1083061;54;20065;-59
2021/08/16 01:43:24;;;;;;;12.30;6.28;;;;;;;;;;1083032;54;20556;-59
2021/08/16 01:44:27;;;;;;;15.38;7.03;;;;;;;;;;1083033;54;20026;-59
2021/08/16 01:45:30;;;;;;;17.13;8.63;;;;;;;;;;1083019;54;20029;-60
2021/08/16 01:46:33;;;;;;;14.90;7.15;;;;;;;;;;1082797;54;20026;-60
2021/08/16 01:47:34;;;;;;;8.98;4.88;;;;;;;;;;1083211;39;20530;-59
2021/08/16 01:48:38;;;;;;;9.02;4.90;;;;;;;;;;1082996;54;20033;-60
2021/08/16 01:49:39;;;;;;;10.02;4.70;;;;;;;;;;1083104;54;20060;-60
2021/08/16 01:50:44;;;;;;;9.93;5.00;;;;;;;;;;1083086;54;20038;-59
2021/08/16 01:51:47;;;;;;;7.53;5.15;;;;;;;;;;1083468;39;20450;-60
2021/08/16 01:52:50;;;;;;;8.63;5.65;;;;;;;;;;1083016;54;20027;-59
2021/08/16 01:53:51;;;;;;;7.78;5.30;;;;;;;;;;1083111;54;20547;-59
2021/08/16 01:54:55;;;;;;;9.80;5.80;;;;;;;;;;1083033;54;20030;-59
2021/08/16 01:55:56;;;;;;;7.95;5.30;;;;;;;;;;1083050;54;20030;-59
2021/08/16 01:57:00;;;;;;;8.07;5.20;;;;;;;;;;1082710;47;20079;-59
2021/08/16 01:58:04;;;;;;;11.40;6.65;;;;;;;;;;1082736;54;20032;-59
2021/08/16 01:59:08;;;;;;;9.73;5.78;;;;;;;;;;1083013;54;20038;-59
2021/08/16 02:00:10;;;;;;;10.50;5.97;;;;;;;;;;1083800;31;20516;-57
2021/08/16 02:01:14;;;;;;;9.50;5.72;;;;;;;;;;1083010;54;20547;-59
2021/08/16 02:02:18;;;;;;;9.75;6.03;;;;;;;;;;1083024;54;20031;-59
2021/08/16 02:03:19;;;;;;;11.25;6.78;;;;;;;;;;1083017;54;20023;-59
2021/08/16 02:04:22;;;;;;;11.27;6.00;;;;;;;;;;1083026;54;20122;-59
2021/08/16 02:05:23;;;;;;;10.13;6.18;;;;;;;;;;1083027;54;20029;-59
2021/08/16 02:06:27;;;;;;;8.13;5.78;;;;;;;;;;1082999;54;20034;-59
2021/08/16 02:07:28;;;;;;;7.75;5.90;;;;;;;;;;1083333;54;20031;-57
2021/08/16 02:08:31;;;;;;;13.30;6.53;;;;;;;;;;1083388;54;20030;-59
2021/08/16 02:09:32;;;;;;;12.70;6.22;;;;;;;;;;1083390;54;20038;-59
2021/08/16 02:10:36;;;;;;;13.32;6.45;;;;;;;;;;1083465;54;20038;-59
2021/08/16 02:11:37;;;;;;;11.73;6.13;;;;;;;;;;1083430;54;20122;-59
2021/08/16 02:12:41;;;;;;;11.15;6.38;;;;;;;;;;1083332;47;20042;-59
2021/08/16 02:13:44;;;;;;;12.02;6.90;;;;;;;;;;1083328;54;20038;-59
2021/08/16 02:14:48;;;;;;;11.48;6.25;;;;;;;;;;1083426;54;20054;-58
2021/08/16 02:15:49;;;;;;;11.00;6.68;;;;;;;;;;1083297;54;20034;-59
2021/08/16 02:16:52;;;;;;;11.15;6.50;;;;;;;;;;1083372;54;20026;-59
2021/08/16 02:17:53;;;;;;;9.02;5.75;;;;;;;;;;1083261;54;20057;-59
2021/08/16 02:18:57;;;;;;;10.25;6.43;;;;;;;;;;1083327;54;20053;-59
2021/08/16 02:19:58;;;;;;;9.57;6.38;;;;;;;;;;1083338;54;20141;-59
2021/08/16 02:21:01;;;;;;;11.68;6.20;;;;;;;;;;1083440;47;20532;-59
2021/08/16 02:22:03;;;;;;;9.38;6.43;;;;;;;;;;1083374;54;20030;-59
2021/08/16 02:23:07;;;;;;;11.93;6.90;;;;;;;;;;1083340;54;20050;-59
2021/08/16 02:24:08;;;;;;;9.75;5.80;;;;;;;;;;1083340;54;20077;-59
2021/08/16 02:25:13;;;;;;;12.35;6.20;;;;;;;;;;1083347;47;20027;-59
2021/08/16 02:26:14;;;;;;;8.23;5.85;;;;;;;;;;1083330;54;20047;-59
2021/08/16 02:27:17;;;;;;;10.30;6.40;;;;;;;;;;1083384;54;20034;-59
2021/08/16 02:28:18;;;;;;;12.32;6.72;;;;;;;;;;1083318;54;20061;-58
2021/08/16 02:29:24;;;;;;;12.05;6.43;;;;;;;;;;1083339;54;20037;-58
2021/08/16 02:30:25;;;;;;;9.55;6.53;;;;;;;;;;1083380;54;20118;-59
2021/08/16 02:31:29;;;;;;;11.68;6.68;;;;;;;;;;1083749;39;20436;-59
2021/08/16 02:32:30;;;;;;;11.70;6.93;;;;;;;;;;1083263;54;20057;-59
2021/08/16 02:33:33;;;;;;;11.50;6.78;;;;;;;;;;1083321;54;20571;-59
2021/08/16 02:34:34;;;;;;;13.45;7.10;;;;;;;;;;1083266;54;20544;-59
2021/08/16 02:35:38;;;;;;;11.38;6.57;;;;;;;;;;1083364;54;20049;-59
2021/08/16 02:36:39;;;;;;;10.38;6.68;;;;;;;;;;1083318;54;20110;-59
2021/08/16 02:37:43;;;;;;;11.95;7.63;;;;;;;;;;1083321;54;20027;-59
2021/08/16 02:38:44;;;;;;;13.20;7.35;;;;;;;;;;1083399;54;20030;-59
2021/08/16 02:39:48;;;;;;;15.25;7.70;;;;;;;;;;1083354;54;20031;-59
2021/08/16 02:40:49;;;;;;;12.02;7.18;;;;;;;;;;1083260;54;20081;-59
2021/08/16 02:41:52;;;;;;;13.52;7.50;;;;;;;;;;1083272;54;20053;-59
2021/08/16 02:42:53;;;;;;;14.30;7.75;;;;;;;;;;1083314;54;20035;-59
2021/08/16 02:43:57;;;;;;;14.85;8.68;;;;;;;;;;1083320;54;20053;-59
2021/08/16 02:45:00;;;;;;;14.55;8.80;;;;;;;;;;1083312;54;20023;-59
2021/08/16 02:46:04;;;;;;;15.48;7.93;;;;;;;;;;1083305;54;20030;-59
2021/08/16 02:47:05;;;;;;;16.38;9.13;;;;;;;;;;1083323;54;20133;-59
2021/08/16 02:48:09;;;;;;;15.07;9.73;;;;;;;;;;1083280;54;20031;-59
2021/08/16 02:49:10;;;;;;;16.13;9.55;;;;;;;;;;1083304;54;20559;-59
2021/08/16 02:50:14;;;;;;;15.27;8.60;;;;;;;;;;1083323;54;20038;-59
2021/08/16 02:51:17;;;;;;;15.43;9.00;;;;;;;;;;1083297;54;20057;-59
2021/08/16 02:52:18;;;;;;;13.93;9.27;;;;;;;;;;1083307;54;20057;-59
2021/08/16 02:53:22;;;;;;;16.35;9.80;;;;;;;;;;1083264;54;20037;-59
2021/08/16 02:54:23;;;;;;;18.50;10.02;;;;;;;;;;1083284;54;20038;-59
2021/08/16 02:55:26;;;;;;;17.40;10.32;;;;;;;;;;1083272;54;20026;-58
2021/08/16 02:56:27;;;;;;;19.05;10.48;;;;;;;;;;1083336;54;20049;-59
2021/08/16 02:57:31;;;;;;;17.30;10.52;;;;;;;;;;1083373;54;20053;-58
2021/08/16 02:58:32;;;;;;;15.13;10.32;;;;;;;;;;1083231;54;20023;-59
2021/08/16 02:59:35;;;;;;;18.67;9.88;;;;;;;;;;1083344;54;20033;-59
2021/08/16 03:00:42;;;;;;;16.15;10.90;;;;;;;;;;1083742;39;20409;-58
2021/08/16 03:01:43;;;;;;;17.45;10.30;;;;;;;;;;1083319;54;20537;-59
2021/08/16 03:02:46;;;;;;;22.42;10.77;;;;;;;;;;1083238;54;20037;-59
2021/08/16 03:03:50;;;;;;;17.38;10.57;;;;;;;;;;1083333;54;20130;-59
2021/08/16 03:04:53;;;;;;;16.30;11.40;;;;;;;;;;1083312;54;20049;-59
2021/08/16 03:05:56;;;;;;;15.75;10.65;;;;;;;;;;1083321;54;20063;-59
2021/08/16 03:06:58;;;;;;;17.25;9.90;;;;;;;;;;1083267;54;20030;-59
2021/08/16 03:08:01;;;;;;;15.70;10.40;;;;;;;;;;1084033;31;20493;-59
2021/08/16 03:09:02;;;;;;;17.13;10.85;;;;;;;;;;1083259;54;20026;-59
2021/08/16 03:10:07;;;;;;;17.20;10.25;;;;;;;;;;1083309;54;20030;-59
2021/08/16 03:11:08;;;;;;;15.15;10.02;;;;;;;;;;1083264;54;20046;-59
2021/08/16 03:12:12;;;;;;;15.80;10.27;;;;;;;;;;1083297;54;20114;-59
2021/08/16 03:13:13;;;;;;;16.83;10.90;;;;;;;;;;1083246;54;20040;-59
2021/08/16 03:14:16;;;;;;;16.88;10.48;;;;;;;;;;1083297;54;20038;-59
2021/08/16 03:15:17;;;;;;;15.93;10.20;;;;;;;;;;1083313;54;20574;-59
2021/08/16 03:16:24;;;;;;;18.70;10.35;;;;;;;;;;1083282;54;20030;-59
2021/08/16 03:17:24;;;;;;;13.15;10.25;;;;;;;;;;1083343;54;20528;-59
2021/08/16 03:18:28;;;;;;;20.15;10.73;;;;;;;;;;1082883;54;20037;-59
2021/08/16 03:19:29;;;;;;;15.77;10.70;;;;;;;;;;1083268;54;20038;-58
2021/08/16 03:20:33;;;;;;;18.23;10.95;;;;;;;;;;1083262;54;20026;-59
2021/08/16 03:21:35;;;;;;;16.02;10.50;;;;;;;;;;1083262;54;20038;-59
2021/08/16 03:22:39;;;;;;;13.00;10.32;;;;;;;;;;1083226;54;20035;-59
2021/08/16 03:23:40;;;;;;;15.00;10.90;;;;;;;;;;1083271;54;20026;-59
2021/08/16 03:24:43;;;;;;;18.70;11.20;;;;;;;;;;1083725;39;20455;-59
2021/08/16 03:25:44;;;;;;;18.25;10.43;;;;;;;;;;1083274;54;20082;-59
2021/08/16 03:26:48;;;;;;;16.65;10.38;;;;;;;;;;1083247;54;20026;-59
2021/08/16 03:27:49;;;;;;;21.27;10.63;;;;;;;;;;1083261;54;20043;-59
2021/08/16 03:28:52;;;;;;;15.27;10.45;;;;;;;;;;1083255;54;20030;-59
2021/08/16 03:29:56;;;;;;;16.00;11.07;;;;;;;;;;1083271;54;20038;-58
2021/08/16 03:30:57;;;;;;;18.83;10.18;;;;;;;;;;1083224;54;20114;-59
2021/08/16 03:32:03;;;;;;;16.83;10.85;;;;;;;;;;1083289;54;20030;-59
2021/08/16 03:33:05;;;;;;;14.60;11.07;;;;;;;;;;1083236;54;20061;-59
2021/08/16 03:34:08;;;;;;;14.90;9.85;;;;;;;;;;1083273;54;20042;-58
2021/08/16 03:35:12;;;;;;;18.48;10.50;;;;;;;;;;1083706;39;20425;-59
2021/08/16 03:36:16;;;;;;;15.50;10.13;;;;;;;;;;1083261;54;20030;-58
2021/08/16 03:37:17;;;;;;;17.98;10.63;;;;;;;;;;1083218;54;20073;-60
2021/08/16 03:38:20;;;;;;;15.23;10.90;;;;;;;;;;1083257;54;20022;-59
2021/08/16 03:39:21;;;;;;;15.15;10.60;;;;;;;;;;1083246;54;20038;-59
2021/08/16 03:40:25;;;;;;;17.67;11.13;;;;;;;;;;1083286;54;20034;-59
2021/08/16 03:41:26;;;;;;;18.08;10.43;;;;;;;;;;1083252;54;20038;-59
2021/08/16 03:42:29;;;;;;;19.77;11.00;;;;;;;;;;1083234;54;20037;-59
2021/08/16 03:43:31;;;;;;;17.13;11.30;;;;;;;;;;1083310;54;20027;-59
2021/08/16 03:44:34;;;;;;;18.05;11.10;;;;;;;;;;1083010;47;20129;-59
2021/08/16 03:45:35;;;;;;;19.40;11.25;;;;;;;;;;1082978;54;20034;-60
2021/08/16 03:46:40;;;;;;;16.30;10.45;;;;;;;;;;1083219;54;20547;-59
2021/08/16 03:47:44;;;;;;;16.77;10.82;;;;;;;;;;1083214;54;20109;-60
2021/08/16 03:48:49;;;;;;;17.17;11.02;;;;;;;;;;1083188;54;20031;-59
2021/08/16 03:49:50;;;;;;;15.05;10.35;;;;;;;;;;1083202;54;20042;-59
2021/08/16 03:50:53;;;;;;;16.63;10.75;;;;;;;;;;1083291;54;20019;-59
2021/08/16 03:51:57;;;;;;;17.63;10.85;;;;;;;;;;1083229;54;20053;-59
2021/08/16 03:52:58;;;;;;;17.85;10.90;;;;;;;;;;1083272;54;20031;-59
2021/08/16 03:54:01;;;;;;;18.27;11.48;;;;;;;;;;1083205;54;20034;-59
2021/08/16 03:55:03;;;;;;;14.50;10.40;;;;;;;;;;1083207;54;20053;-59
2021/08/16 03:56:10;;;;;;;18.48;11.52;;;;;;;;;;1083236;54;20544;-59
2021/08/16 03:57:11;;;;;;;19.98;11.23;;;;;;;;;;1083664;39;20425;-59
2021/08/16 03:58:15;;;;;;;15.50;10.98;;;;;;;;;;1083218;54;20027;-59
2021/08/16 03:59:15;;;;;;;16.25;10.40;;;;;;;;;;1083241;54;20571;-59
2021/08/16 04:00:20;;;;;;;18.65;11.63;;;;;;;;;;1083198;54;20034;-58
2021/08/16 04:01:21;;;;;;;19.00;10.48;;;;;;;;;;1083220;54;20027;-59
2021/08/16 04:02:24;;;;;;;15.25;10.65;;;;;;;;;;1083193;54;20036;-59
2021/08/16 04:03:28;;;;;;;15.23;10.75;;;;;;;;;;1083248;54;20034;-59
2021/08/16 04:04:31;;;;;;;16.63;10.45;;;;;;;;;;1083187;54;20021;-59
2021/08/16 04:05:32;;;;;;;18.80;11.27;;;;;;;;;;1083290;54;20049;-59
2021/08/16 04:06:36;;;;;;;15.68;10.73;;;;;;;;;;1083205;54;20042;-58
2021/08/16 04:07:37;;;;;;;17.30;10.80;;;;;;;;;;1083125;54;20049;-60
2021/08/16 04:08:43;;;;;;;21.77;11.07;;;;;;;;;;1082923;54;20023;-59
2021/08/16 04:09:44;;;;;;;17.42;11.05;;;;;;;;;;1082974;54;20057;-59
2021/08/16 04:10:47;;;;;;;14.68;10.15;;;;;;;;;;1083446;54;20034;-59
2021/08/16 04:11:48;;;;;;;15.95;10.30;;;;;;;;;;1083446;54;20061;-59
2021/08/16 04:12:52;;;;;;;19.45;11.77;;;;;;;;;;1083408;54;20069;-59
2021/08/16 04:13:53;;;;;;;16.30;10.73;;;;;;;;;;1083434;54;20548;-59
2021/08/16 04:14:57;;;;;;;17.75;11.45;;;;;;;;;;1083374;54;20026;-59
2021/08/16 04:15:58;;;;;;;13.80;10.15;;;;;;;;;;1083410;54;20057;-58
2021/08/16 04:17:01;;;;;;;16.85;10.70;;;;;;;;;;1083371;54;20030;-59
2021/08/16 04:18:02;;;;;;;16.70;10.57;;;;;;;;;;1083441;54;20030;-59
2021/08/16 04:19:09;;;;;;;16.80;11.48;;;;;;;;;;1083364;54;20022;-60
2021/08/16 04:20:11;;;;;;;15.55;10.90;;;;;;;;;;1083350;54;20038;-59
2021/08/16 04:21:15;;;;;;;16.38;10.48;;;;;;;;;;1083524;54;20047;-59
2021/08/16 04:22:16;;;;;;;15.07;11.95;;;;;;;;;;1083314;54;20029;-59
2021/08/16 04:23:20;;;;;;;20.30;11.90;;;;;;;;;;1083304;54;20632;-59
2021/08/16 04:24:21;;;;;;;20.05;12.48;;;;;;;;;;1083359;54;20057;-58
2021/08/16 04:25:25;;;;;;;18.98;12.50;;;;;;;;;;1083373;54;20026;-59
2021/08/16 04:26:25;;;;;;;18.67;11.50;;;;;;;;;;1083389;54;20027;-59
2021/08/16 04:27:29;;;;;;;18.40;12.15;;;;;;;;;;1083416;54;20559;-58
2021/08/16 04:28:33;;;;;;;19.52;11.73;;;;;;;;;;1083503;54;20129;-59
2021/08/16 04:29:34;;;;;;;16.80;11.68;;;;;;;;;;1083383;54;20544;-59
2021/08/16 04:30:39;;;;;;;22.30;12.20;;;;;;;;;;1083481;54;20130;-59
2021/08/16 04:31:42;;;;;;;17.60;11.82;;;;;;;;;;1083333;54;20029;-59
2021/08/16 04:32:43;;;;;;;17.25;11.70;;;;;;;;;;1083497;54;20030;-59
2021/08/16 04:33:47;;;;;;;18.20;11.85;;;;;;;;;;1083202;54;20022;-59
2021/08/16 04:34:50;;;;;;;18.60;11.85;;;;;;;;;;1083144;54;20057;-59
2021/08/16 04:35:54;;;;;;;17.52;11.80;;;;;;;;;;1083183;54;20057;-59
2021/08/16 04:36:55;;;;;;;17.23;11.57;;;;;;;;;;1083182;54;20536;-59
2021/08/16 04:37:59;;;;;;;19.33;12.38;;;;;;;;;;1083146;54;20022;-59
2021/08/16 04:39:00;;;;;;;16.60;12.80;;;;;;;;;;1083207;54;20049;-59
2021/08/16 04:40:03;;;;;;;18.67;12.13;;;;;;;;;;1083193;54;20056;-59
2021/08/16 04:41:04;;;;;;;16.45;12.20;;;;;;;;;;1083154;54;20022;-59
2021/08/16 04:42:08;;;;;;;15.23;11.05;;;;;;;;;;1083155;54;20032;-59
2021/08/16 04:43:09;;;;;;;18.30;12.38;;;;;;;;;;1083158;54;20026;-59
2021/08/16 04:44:12;;;;;;;21.88;12.60;;;;;;;;;;1083130;54;20038;-59
2021/08/16 04:45:14;;;;;;;16.85;12.13;;;;;;;;;;1083168;54;20138;-58
2021/08/16 04:46:17;;;;;;;18.00;12.20;;;;;;;;;;1083151;54;20030;-59
2021/08/16 04:47:18;;;;;;;18.75;12.13;;;;;;;;;;1083155;54;20034;-59
2021/08/16 04:48:22;;;;;;;17.17;12.15;;;;;;;;;;1083132;54;20025;-59
2021/08/16 04:49:23;;;;;;;17.05;12.57;;;;;;;;;;1083138;54;20022;-59
2021/08/16 04:50:29;;;;;;;18.23;12.57;;;;;;;;;;1082890;47;20031;-59
2021/08/16 04:51:30;;;;;;;16.33;11.65;;;;;;;;;;1082885;54;20049;-59
2021/08/16 04:52:34;;;;;;;22.42;12.65;;;;;;;;;;1083125;54;20049;-59
2021/08/16 04:53:35;;;;;;;20.77;12.90;;;;;;;;;;1083151;54;20023;-59
2021/08/16 04:54:38;;;;;;;20.10;12.20;;;;;;;;;;1083093;54;20030;-59
2021/08/16 04:55:39;;;;;;;18.35;11.90;;;;;;;;;;1083115;54;20045;-59
2021/08/16 04:56:43;;;;;;;17.65;12.45;;;;;;;;;;1083166;54;20026;-59
2021/08/16 04:57:44;;;;;;;18.38;12.20;;;;;;;;;;1083067;54;20022;-59
2021/08/16 04:58:47;;;;;;;18.77;12.35;;;;;;;;;;1083135;54;20021;-59
2021/08/16 04:59:48;;;;;;;21.98;12.10;;;;;;;;;;1083121;54;20019;-59
2021/08/16 05:00:52;;;;;;;17.83;12.00;;;;;;;;;;1083111;54;20018;-59
2021/08/16 05:01:53;;;;;;;19.15;12.93;;;;;;;;;;1083096;54;20114;-59
2021/08/16 05:02:59;;;;;;;17.92;12.63;;;;;;;;;;1083115;54;20551;-60
2021/08/16 05:04:00;;;;;;;19.10;12.55;;;;;;;;;;1083151;54;20034;-59
2021/08/16 05:05:09;;;;;;;17.58;11.88;;;;;;;;;;1083207;54;20019;-59
2021/08/16 05:06:15;;;;;;;19.17;12.75;;;;;;;;;;1083149;54;20015;-59
2021/08/16 05:07:16;;;;;;;19.77;12.82;;;;;;;;;;1083139;54;20025;-59
2021/08/16 05:08:19;;;;;;;19.63;12.30;;;;;;;;;;1083075;54;20049;-59
2021/08/16 05:09:20;;;;;;;19.73;12.57;;;;;;;;;;1083110;54;20030;-59
2021/08/16 05:10:25;;;;;;;17.58;12.07;;;;;;;;;;1083112;54;20029;-59
2021/08/16 05:11:26;;;;;;;18.20;12.25;;;;;;;;;;1083084;54;20552;-59
2021/08/16 05:12:30;;;;;;;20.30;12.43;;;;;;;;;;1083177;54;20022;-59
2021/08/16 05:13:32;;;;;;;19.45;12.65;;;;;;;;;;1083161;54;20036;-59
2021/08/16 05:14:36;;;;;;;18.88;11.82;;;;;;;;;;1083279;54;20121;-62
2021/08/16 05:15:40;;;;;;;17.30;12.75;;;;;;;;;;1083150;54;20118;-62
2021/08/16 05:16:41;;;;;;;18.83;12.38;;;;;;;;;;1083093;54;20030;-63
2021/08/16 05:17:45;;;;;;;18.98;12.45;;;;;;;;;;1083156;54;20019;-63
2021/08/16 05:18:46;;;;;;;20.77;12.98;;;;;;;;;;1083939;31;20461;-62
2021/08/16 05:19:51;;;;;;;21.50;13.05;;;;;;;;;;1083087;54;20027;-62
2021/08/16 05:20:56;;;;;;;17.77;12.80;;;;;;;;;;1083063;54;20030;-62
2021/08/16 05:22:00;;;;;;;18.88;13.20;;;;;;;;;;1083135;54;20054;-63
2021/08/16 05:23:04;;;;;;;21.35;13.02;;;;;;;;;;1083080;54;20567;-62
2021/08/16 05:24:05;;;;;;;17.85;12.50;;;;;;;;;;1083068;54;20031;-62
2021/08/16 05:25:09;;;;;;;20.20;12.05;;;;;;;;;;1083556;39;20432;-62
2021/08/16 05:26:11;;;;;;;19.05;13.30;;;;;;;;;;1083086;54;20624;-63
2021/08/16 05:27:14;;;;;;;21.50;12.63;;;;;;;;;;1083060;54;20033;-62
2021/08/16 05:28:15;;;;;;;19.92;14.02;;;;;;;;;;1082748;47;20033;-63
2021/08/16 05:29:19;;;;;;;21.80;13.27;;;;;;;;;;1082798;54;20037;-63
2021/08/16 05:30:20;;;;;;;19.35;12.90;;;;;;;;;;1083058;54;20038;-63
2021/08/16 05:31:23;;;;;;;21.88;13.77;;;;;;;;;;1083070;54;20030;-63
2021/08/16 05:32:25;;;;;;;22.45;13.93;;;;;;;;;;1083075;47;20628;-62
2021/08/16 05:33:28;;;;;;;18.13;12.73;;;;;;;;;;1083101;54;20073;-63
2021/08/16 05:34:29;;;;;;;20.10;13.65;;;;;;;;;;1083019;54;20026;-62
2021/08/16 05:35:33;;;;;;;21.35;13.05;;;;;;;;;;1083029;54;20030;-62
2021/08/16 05:36:34;;;;;;;16.63;12.82;;;;;;;;;;1083138;54;20092;-62
2021/08/16 05:37:40;;;;;;;23.33;13.70;;;;;;;;;;1083092;54;20558;-62
2021/08/16 05:38:43;;;;;;;18.20;12.20;;;;;;;;;;1083070;54;20033;-62
2021/08/16 05:39:46;;;;;;;19.35;12.60;;;;;;;;;;1083040;54;20026;-63
2021/08/16 05:40:47;;;;;;;16.23;12.43;;;;;;;;;;1083035;54;20034;-63
2021/08/16 05:41:51;;;;;;;18.27;12.75;;;;;;;;;;1083159;54;20026;-62
2021/08/16 05:42:52;;;;;;;18.00;12.15;;;;;;;;;;1083390;54;20049;-62
2021/08/16 05:43:56;;;;;;;20.45;12.43;;;;;;;;;;1083392;54;20027;-62
2021/08/16 05:44:58;;;;;;;20.65;12.63;;;;;;;;;;1083384;54;20029;-63
2021/08/16 05:46:01;;;;;;;19.73;12.88;;;;;;;;;;1083409;54;20014;-62
2021/08/16 05:47:05;;;;;;;22.08;13.35;;;;;;;;;;1083407;54;20038;-62
2021/08/16 05:48:09;;;;;;;19.10;13.18;;;;;;;;;;1083380;54;20031;-62
2021/08/16 05:49:10;;;;;;;20.80;12.38;;;;;;;;;;1083405;54;20061;-62
2021/08/16 05:50:14;;;;;;;20.20;12.60;;;;;;;;;;1083388;54;20026;-62
2021/08/16 05:51:15;;;;;;;19.60;12.52;;;;;;;;;;1083368;54;20058;-63
2021/08/16 05:52:18;;;;;;;17.50;11.45;;;;;;;;;;1083397;54;20049;-62
2021/08/16 05:53:22;;;;;;;20.05;12.88;;;;;;;;;;1083354;54;20584;-62
2021/08/16 05:54:26;;;;;;;18.83;12.30;;;;;;;;;;1083338;54;20023;-62
2021/08/16 05:55:29;;;;;;;17.25;11.85;;;;;;;;;;1083367;54;20014;-62
2021/08/16 05:56:31;;;;;;;19.67;12.30;;;;;;;;;;1083347;54;20061;-62
2021/08/16 05:57:34;;;;;;;17.15;11.32;;;;;;;;;;1083372;54;20038;-62
2021/08/16 05:58:35;;;;;;;14.50;11.25;;;;;;;;;;1083281;54;20053;-62
2021/08/16 05:59:39;;;;;;;17.15;11.15;;;;;;;;;;1083341;54;20030;-62
2021/08/16 06:00:40;;;;;;;15.98;11.27;;;;;;;;;;1083316;54;20046;-62
2021/08/16 06:01:44;;;;;;;15.75;10.93;;;;;;;;;;1083350;54;20034;-62
2021/08/16 06:02:47;;;;;;;15.25;11.40;;;;;;;;;;1083387;54;20118;-62
2021/08/16 06:03:48;;;;;;;11.88;10.40;;;;;;;;;;1084143;31;20493;-62
2021/08/16 06:04:52;;;;;;;16.08;10.60;;;;;;;;;;1083334;54;20042;-62
2021/08/16 06:05:53;;;;;;;17.15;9.90;;;;;;;;;;1083393;54;20018;-62
2021/08/16 06:06:56;;;;;;;17.58;10.65;;;;;;;;;;1083402;54;20023;-63